National Weather Service Raw Text Product

Displaying AFOS PIL: TAFOTM Received: 2018-12-06 17:25 UTC


825 
FTUS43 KDMX 061725
TAFOTM
TAF
KOTM 061725Z 0618/0718 34014KT P6SM SCT022
     FM070200 33006KT P6SM SCT025
     FM071200 VRB05KT P6SM SCT025=